Norbank — PGIS — position and weather

sailwx.info

Track history (hours):
 
Tides and Currents Weather Stations Pressure Air Temp Water Temp Dewpoint Dewpoint Depression Visibility Wind Speed Wind Dir Waves Ship Positions

Norbank

Operator: P & O Ferries

Last reported at 2016-Jun-29 01:33 UTC. Time now 2016-Jun-29 02:05 UTC.
Position N 53°32' W 003°48'.

Length 167 m; draft 5.7 m.

Type: Ship (hazmat cat A). MMSI: 246213000.

Date/timePositionNaut miles runAvg speedWind from/ knotsBaromVisibWave heightAir tempDewpointWater temp
2016-Jun-29 01:33N 53°32' W 003°48'1717.3
2016-Jun-29 00:33N 53°35' W 004°17'9 0.7
2016-Jun-28 11:12N 53°34' W 004°02'1218.0
2016-Jun-28 10:33N 53°33' W 003°42'1818.0
2016-Jun-28 09:33N 53°31' W 003°12'8 7.8
2016-Jun-28 08:33N 53°27' W 003°01'0 0.4
2016-Jun-28 07:31N 53°27' W 003°01'0 0.0
2016-Jun-28 06:31N 53°27' W 003°01'0 0.0
2016-Jun-28 04:33N 53°27' W 003°01'1 1.2
2016-Jun-28 03:33N 53°26' W 003°01'1110.6
2016-Jun-28 02:33N 53°31' W 003°16'1716.6
2016-Jun-28 01:33N 53°31' W 003°44'1616.5
2016-Jun-28 00:33N 53°35' W 004°11'10 0.4
2016-Jun-26 22:30N 53°34' W 003°55'1616.8
2016-Jun-26 21:33N 53°33' W 003°29'1515.4
2016-Jun-26 20:33N 53°29' W 003°04'2 2.2
2016-Jun-26 19:32N 53°27' W 003°01'0 0.0
2016-Jun-26 18:31N 53°27' W 003°01'0 0.0
2016-Jun-26 17:31N 53°27' W 003°01'0 0.0
2016-Jun-26 16:33N 53°27' W 003°01'0 0.0
2016-Jun-26 15:33N 53°27' W 003°01'0 0.0
2016-Jun-26 14:32N 53°27' W 003°01'0 0.0
2016-Jun-26 13:32N 53°27' W 003°01'0 0.0
2016-Jun-26 12:32N 53°27' W 003°01'0 0.0
2016-Jun-26 11:28N 53°27' W 003°01'0 0.0
2016-Jun-26 10:31N 53°27' W 003°01'0 0.0
2016-Jun-26 09:30N 53°27' W 003°01'0 0.0
2016-Jun-26 08:33N 53°27' W 003°01'0 0.0
2016-Jun-26 07:33N 53°27' W 003°01'0 0.0
2016-Jun-26 06:23N 53°27' W 003°01'0 0.0
2016-Jun-26 05:32N 53°27' W 003°01'0 0.5
2016-Jun-26 04:33N 53°27' W 003°01'9 8.9
2016-Jun-26 03:33N 53°31' W 003°14'1716.5
2016-Jun-26 02:33N 53°31' W 003°42'1414.4
2016-Jun-26 01:33N 53°34' W 004°06'2 0.1
2016-Jun-25 11:27N 53°33' W 004°03'1415.7
2016-Jun-25 10:33N 53°33' W 003°40'1616.2
2016-Jun-25 09:33N 53°31' W 003°13'8 8.3
2016-Jun-25 08:33N 53°27' W 003°01'0 0.4
2016-Jun-25 07:31N 53°27' W 003°01'0 0.0
2016-Jun-25 06:33N 53°27' W 003°01'0 0.0
2016-Jun-25 05:33N 53°27' W 003°01'0 0.0
2016-Jun-25 04:32N 53°27' W 003°01'1 1.0
2016-Jun-25 03:33N 53°28' W 003°03'1615.6
2016-Jun-25 02:33N 53°32' W 003°28'1717.4
2016-Jun-25 01:33N 53°33' W 003°57'5 0.4
2016-Jun-24 12:10N 53°34' W 004°06'1117.8
2016-Jun-24 11:33N 53°33' W 003°48'1817.7
2016-Jun-24 10:33N 53°31' W 003°18'1111.0
2016-Jun-24 09:33N 53°27' W 003°01'0 0.5
2016-Jun-24 08:33N 53°27' W 003°01'0 0.0
2016-Jun-24 07:33N 53°27' W 003°01'0 0.0
2016-Jun-24 04:29N 53°27' W 003°01'1 1.0
2016-Jun-24 03:33N 53°28' W 003°03'1414.4
2016-Jun-24 02:33N 53°31' W 003°26'1716.9
2016-Jun-24 01:33N 53°33' W 003°54'20 1.5
2016-Jun-23 12:29N 53°33' W 004°27'1916.2
2016-Jun-23 11:19N 53°33' W 003°55'1215.8
2016-Jun-23 10:33N 53°33' W 003°35'1515.4
2016-Jun-23 09:33N 53°32' W 003°09'7 6.8
2016-Jun-23 08:33N 53°27' W 003°01'0 0.4
2016-Jun-23 07:31N 53°27' W 003°01'0 0.0
2016-Jun-23 05:30N 53°27' W 003°01'0 0.0
2016-Jun-23 04:33N 53°27' W 003°01'1 0.7
2016-Jun-23 03:33N 53°27' W 003°02'1313.2
2016-Jun-23 02:33N 53°31' W 003°23'1616.2
2016-Jun-23 01:33N 53°32' W 003°51'1616.3
2016-Jun-23 00:33N 53°35' W 004°18'15 1.2
2016-Jun-22 11:33N 53°34' W 003°52'1616.2
2016-Jun-22 10:33N 53°33' W 003°25'1515.3
2016-Jun-22 09:33N 53°27' W 003°01'1 0.7
2016-Jun-22 08:32N 53°27' W 003°01'0 0.0
2016-Jun-22 07:32N 53°27' W 003°01'0 0.0
2016-Jun-22 06:31N 53°27' W 003°01'0 0.0
2016-Jun-22 05:31N 53°27' W 003°01'0 0.0
2016-Jun-22 04:31N 53°27' W 003°01'1 0.7
2016-Jun-22 03:33N 53°27' W 003°02'1514.5
2016-Jun-22 02:33N 53°31' W 003°25'1817.9
2016-Jun-22 01:33N 53°33' W 003°55'4 0.3
2016-Jun-21 12:15N 53°33' W 003°48'1521.1
2016-Jun-21 11:33N 53°33' W 003°24'1514.8
2016-Jun-21 10:33N 53°26' W 003°01'1 0.8
2016-Jun-21 09:33N 53°27' W 003°01'0 0.3
2016-Jun-21 08:32N 53°27' W 003°01'0 0.0
2016-Jun-21 07:29N 53°27' W 003°01'0 0.0
2016-Jun-21 04:31N 53°27' W 003°01'1 0.6
2016-Jun-21 03:33N 53°27' W 003°01'1111.4
2016-Jun-21 02:33N 53°31' W 003°19'1615.7
2016-Jun-21 01:34N 53°32' W 003°45'3 0.1
2016-Jun-19 22:33N 53°33' W 003°50'1514.7
2016-Jun-19 21:33N 53°33' W 003°25'1515.0
2016-Jun-19 20:33N 53°27' W 003°02'1 0.6
2016-Jun-19 19:28N 53°27' W 003°01'0 0.0
2016-Jun-19 18:30N 53°27' W 003°01'0 0.0
2016-Jun-19 17:33N 53°27' W 003°01'0 0.0
2016-Jun-19 16:33N 53°27' W 003°01'0 0.0
2016-Jun-19 15:32N 53°27' W 003°01'0 0.0
2016-Jun-19 14:32N 53°27' W 003°01'0 0.0
2016-Jun-19 13:31N 53°27' W 003°01'0 0.0
2016-Jun-19 12:28N 53°27' W 003°01'0 0.0
2016-Jun-19 11:30N 53°27' W 003°01'0 0.0
2016-Jun-19 10:33N 53°27' W 003°01'0 0.0
2016-Jun-19 09:30N 53°27' W 003°01'0 0.0
2016-Jun-19 08:29N 53°27' W 003°01'0 0.0
2016-Jun-19 07:32N 53°27' W 003°01'0 0.0
2016-Jun-19 06:31N 53°27' W 003°01'0 0.0
2016-Jun-19 05:31N 53°27' W 003°01'0 0.5
2016-Jun-19 04:32N 53°27' W 003°01'5 5.1
2016-Jun-19 03:33N 53°31' W 003°07'1616.5
2016-Jun-19 02:33N 53°31' W 003°34'  
Track history (hours):
 
Tides and Currents Weather Stations Pressure Air Temp Water Temp Dewpoint Dewpoint Depression Visibility Wind Speed Wind Dir Waves Ship Positions

Norbank

Operator: P & O Ferries

Last reported at 2016-Jun-29 01:33 UTC. Time now 2016-Jun-29 02:05 UTC.
Position N 53°32' W 003°48'.

Length 167 m; draft 5.7 m.

Type: Ship (hazmat cat A). MMSI: 246213000.

Date/timePositionNaut miles runAvg speedWind from/ knotsBaromVisibWave heightAir tempDewpointWater temp
2016-Jun-29 01:33N 53°32' W 003°48'1717.3
2016-Jun-29 00:33N 53°35' W 004°17'9 0.7
2016-Jun-28 11:12N 53°34' W 004°02'1218.0
2016-Jun-28 10:33N 53°33' W 003°42'1818.0
2016-Jun-28 09:33N 53°31' W 003°12'8 7.8
2016-Jun-28 08:33N 53°27' W 003°01'0 0.4
2016-Jun-28 07:31N 53°27' W 003°01'0 0.0
2016-Jun-28 06:31N 53°27' W 003°01'0 0.0
2016-Jun-28 04:33N 53°27' W 003°01'1 1.2
2016-Jun-28 03:33N 53°26' W 003°01'1110.6
2016-Jun-28 02:33N 53°31' W 003°16'1716.6
2016-Jun-28 01:33N 53°31' W 003°44'1616.5
2016-Jun-28 00:33N 53°35' W 004°11'10 0.4
2016-Jun-26 22:30N 53°34' W 003°55'1616.8
2016-Jun-26 21:33N 53°33' W 003°29'1515.4
2016-Jun-26 20:33N 53°29' W 003°04'2 2.2
2016-Jun-26 19:32N 53°27' W 003°01'0 0.0
2016-Jun-26 18:31N 53°27' W 003°01'0 0.0
2016-Jun-26 17:31N 53°27' W 003°01'0 0.0
2016-Jun-26 16:33N 53°27' W 003°01'0 0.0
2016-Jun-26 15:33N 53°27' W 003°01'0 0.0
2016-Jun-26 14:32N 53°27' W 003°01'0 0.0
2016-Jun-26 13:32N 53°27' W 003°01'0 0.0
2016-Jun-26 12:32N 53°27' W 003°01'0 0.0
2016-Jun-26 11:28N 53°27' W 003°01'0 0.0
2016-Jun-26 10:31N 53°27' W 003°01'0 0.0
2016-Jun-26 09:30N 53°27' W 003°01'0 0.0
2016-Jun-26 08:33N 53°27' W 003°01'0 0.0
2016-Jun-26 07:33N 53°27' W 003°01'0 0.0
2016-Jun-26 06:23N 53°27' W 003°01'0 0.0
2016-Jun-26 05:32N 53°27' W 003°01'0 0.5
2016-Jun-26 04:33N 53°27' W 003°01'9 8.9
2016-Jun-26 03:33N 53°31' W 003°14'1716.5
2016-Jun-26 02:33N 53°31' W 003°42'1414.4
2016-Jun-26 01:33N 53°34' W 004°06'2 0.1
2016-Jun-25 11:27N 53°33' W 004°03'1415.7
2016-Jun-25 10:33N 53°33' W 003°40'1616.2
2016-Jun-25 09:33N 53°31' W 003°13'8 8.3
2016-Jun-25 08:33N 53°27' W 003°01'0 0.4
2016-Jun-25 07:31N 53°27' W 003°01'0 0.0
2016-Jun-25 06:33N 53°27' W 003°01'0 0.0
2016-Jun-25 05:33N 53°27' W 003°01'0 0.0
2016-Jun-25 04:32N 53°27' W 003°01'1 1.0
2016-Jun-25 03:33N 53°28' W 003°03'1615.6
2016-Jun-25 02:33N 53°32' W 003°28'1717.4
2016-Jun-25 01:33N 53°33' W 003°57'5 0.4
2016-Jun-24 12:10N 53°34' W 004°06'1117.8
2016-Jun-24 11:33N 53°33' W 003°48'1817.7
2016-Jun-24 10:33N 53°31' W 003°18'1111.0
2016-Jun-24 09:33N 53°27' W 003°01'0 0.5
2016-Jun-24 08:33N 53°27' W 003°01'0 0.0
2016-Jun-24 07:33N 53°27' W 003°01'0 0.0
2016-Jun-24 04:29N 53°27' W 003°01'1 1.0
2016-Jun-24 03:33N 53°28' W 003°03'1414.4
2016-Jun-24 02:33N 53°31' W 003°26'1716.9
2016-Jun-24 01:33N 53°33' W 003°54'20 1.5
2016-Jun-23 12:29N 53°33' W 004°27'1916.2
2016-Jun-23 11:19N 53°33' W 003°55'1215.8
2016-Jun-23 10:33N 53°33' W 003°35'1515.4
2016-Jun-23 09:33N 53°32' W 003°09'7 6.8
2016-Jun-23 08:33N 53°27' W 003°01'0 0.4
2016-Jun-23 07:31N 53°27' W 003°01'0 0.0
2016-Jun-23 05:30N 53°27' W 003°01'0 0.0
2016-Jun-23 04:33N 53°27' W 003°01'1 0.7
2016-Jun-23 03:33N 53°27' W 003°02'1313.2
2016-Jun-23 02:33N 53°31' W 003°23'1616.2
2016-Jun-23 01:33N 53°32' W 003°51'1616.3
2016-Jun-23 00:33N 53°35' W 004°18'15 1.2
2016-Jun-22 11:33N 53°34' W 003°52'1616.2
2016-Jun-22 10:33N 53°33' W 003°25'1515.3
2016-Jun-22 09:33N 53°27' W 003°01'1 0.7
2016-Jun-22 08:32N 53°27' W 003°01'0 0.0
2016-Jun-22 07:32N 53°27' W 003°01'0 0.0
2016-Jun-22 06:31N 53°27' W 003°01'0 0.0
2016-Jun-22 05:31N 53°27' W 003°01'0 0.0
2016-Jun-22 04:31N 53°27' W 003°01'1 0.7
2016-Jun-22 03:33N 53°27' W 003°02'1514.5
2016-Jun-22 02:33N 53°31' W 003°25'1817.9
2016-Jun-22 01:33N 53°33' W 003°55'4 0.3
2016-Jun-21 12:15N 53°33' W 003°48'1521.1
2016-Jun-21 11:33N 53°33' W 003°24'1514.8
2016-Jun-21 10:33N 53°26' W 003°01'1 0.8
2016-Jun-21 09:33N 53°27' W 003°01'0 0.3
2016-Jun-21 08:32N 53°27' W 003°01'0 0.0
2016-Jun-21 07:29N 53°27' W 003°01'0 0.0
2016-Jun-21 04:31N 53°27' W 003°01'1 0.6
2016-Jun-21 03:33N 53°27' W 003°01'1111.4
2016-Jun-21 02:33N 53°31' W 003°19'1615.7
2016-Jun-21 01:34N 53°32' W 003°45'3 0.1
2016-Jun-19 22:33N 53°33' W 003°50'1514.7
2016-Jun-19 21:33N 53°33' W 003°25'1515.0
2016-Jun-19 20:33N 53°27' W 003°02'1 0.6
2016-Jun-19 19:28N 53°27' W 003°01'0 0.0
2016-Jun-19 18:30N 53°27' W 003°01'0 0.0
2016-Jun-19 17:33N 53°27' W 003°01'0 0.0
2016-Jun-19 16:33N 53°27' W 003°01'0 0.0
2016-Jun-19 15:32N 53°27' W 003°01'0 0.0
2016-Jun-19 14:32N 53°27' W 003°01'0 0.0
2016-Jun-19 13:31N 53°27' W 003°01'0 0.0
2016-Jun-19 12:28N 53°27' W 003°01'0 0.0
2016-Jun-19 11:30N 53°27' W 003°01'0 0.0
2016-Jun-19 10:33N 53°27' W 003°01'0 0.0
2016-Jun-19 09:30N 53°27' W 003°01'0 0.0
2016-Jun-19 08:29N 53°27' W 003°01'0 0.0
2016-Jun-19 07:32N 53°27' W 003°01'0 0.0
2016-Jun-19 06:31N 53°27' W 003°01'0 0.0
2016-Jun-19 05:31N 53°27' W 003°01'0 0.5
2016-Jun-19 04:32N 53°27' W 003°01'5 5.1
2016-Jun-19 03:33N 53°31' W 003°07'1616.5
2016-Jun-19 02:33N 53°31' W 003°34'  

Dump ship's entire track history